Time;durP1;ratioP1;P1;durP2;ratioP2;P2;SDS_P1;SDS_P2;PMS_P1;PMS_P2;Temp;Humidity;BMP_temperature;BMP_pressure;BME280_temperature;BME280_humidity;BME280_pressure;Samples;Min_cycle;Max_cycle;Signal;HPM_P1;HPM_P2
2023/05/10 00:00:50;;;;;;;;;0.00;0.00;;;;;25.56;41.42;101077.13;5018764;28;45392;-74
2023/05/10 00:03:16;;;;;;;;;0.00;0.00;;;;;25.57;41.22;101081.44;5019443;28;45348;-74
2023/05/10 00:05:41;;;;;;;;;1.67;0.33;;;;;25.56;40.86;101085.13;5019273;28;45337;-73
2023/05/10 00:08:06;;;;;;;;;2.00;1.00;;;;;25.56;41.21;101077.13;5018987;28;45483;-75
2023/05/10 00:10:32;;;;;;;;;1.00;1.00;;;;;25.50;41.37;101070.78;5018487;28;45230;-74
2023/05/10 00:12:58;;;;;;;;;0.00;0.00;;;;;25.57;41.12;101081.44;5018913;28;45367;-74
2023/05/10 00:15:23;;;;;;;;;0.67;0.00;;;;;25.57;41.12;101076.94;5019052;28;45614;-74
2023/05/10 00:17:48;;;;;;;;;0.33;0.33;;;;;25.34;41.20;101042.63;5018945;28;45279;-74
2023/05/10 00:20:14;;;;;;;;;0.00;0.00;;;;;25.48;41.16;101064.78;5018745;28;45241;-73
2023/05/10 00:22:39;;;;;;;;;2.00;0.33;;;;;25.46;41.20;101070.34;5019017;28;45709;-74
2023/05/10 00:25:05;;;;;;;;;0.00;0.00;;;;;25.57;41.00;101084.09;5018604;28;45373;-74
2023/05/10 00:27:31;;;;;;;;;0.00;0.00;;;;;25.57;41.13;101078.78;5018670;28;45551;-74
2023/05/10 00:29:56;;;;;;;;;0.67;0.67;;;;;25.58;41.18;101077.78;5018676;28;45657;-74
2023/05/10 00:32:21;;;;;;;;;2.00;1.00;;;;;25.50;40.95;101076.91;5018870;28;45482;-74
2023/05/10 00:34:47;;;;;;;;;0.00;0.00;;;;;25.57;41.11;101082.28;5018869;28;45305;-71
2023/05/10 00:37:12;;;;;;;;;1.00;1.00;;;;;25.54;40.83;101072.00;5017410;28;48040;-73
2023/05/10 00:39:37;;;;;;;;;0.00;0.00;;;;;25.45;40.88;101066.00;5018342;28;45393;-73
2023/05/10 00:42:04;;;;;;;;;0.00;0.00;;;;;25.58;41.18;101089.22;5017452;28;45593;-75
2023/05/10 00:44:30;;;;;;;;;0.00;0.00;;;;;25.58;41.15;101089.22;5018592;28;45401;-73
2023/05/10 00:46:56;;;;;;;;;2.00;0.00;;;;;25.58;40.82;101085.75;5016931;28;47241;-74
2023/05/10 00:49:21;;;;;;;;;0.67;0.67;;;;;25.57;40.96;101086.78;5018400;28;45400;-73
2023/05/10 00:51:47;;;;;;;;;0.67;0.00;;;;;25.54;41.38;101087.16;5018618;28;45412;-74
2023/05/10 00:54:14;;;;;;;;;0.00;0.00;;;;;25.49;40.88;101072.59;5018056;28;45646;-74
2023/05/10 00:56:40;;;;;;;;;0.00;0.00;;;;;25.49;40.75;101077.09;5018248;28;46331;-74
2023/05/10 00:59:08;;;;;;;;;2.33;1.00;;;;;25.47;40.75;101066.66;5017918;28;45392;-74
2023/05/10 01:01:33;;;;;;;;;0.00;0.00;;;;;25.47;40.53;101063.16;5017442;28;45367;-75
2023/05/10 01:03:59;;;;;;;;;2.33;0.00;;;;;25.36;41.04;101062.72;5018232;28;45281;-74
2023/05/10 01:06:24;;;;;;;;;1.00;0.00;;;;;25.56;40.75;101077.94;5018043;28;45376;-74
2023/05/10 01:08:50;;;;;;;;;1.00;0.00;;;;;25.51;40.66;101070.56;5017740;28;45383;-74
2023/05/10 01:11:15;;;;;;;;;0.67;0.67;;;;;25.11;40.94;101017.13;5018140;28;45324;-74
2023/05/10 01:13:43;;;;;;;;;0.00;0.00;;;;;25.52;41.14;101085.53;5017815;28;45309;-74
2023/05/10 01:16:08;;;;;;;;;0.00;0.00;;;;;25.56;40.91;101085.13;5017951;28;46402;-74
2023/05/10 01:18:40;;;;;;;;;1.00;0.00;;;;;25.57;40.65;101081.44;5017929;28;45279;-74
2023/05/10 01:21:11;;;;;;;;;3.00;1.00;;;;;25.57;40.77;101084.94;5018019;28;45339;-73
2023/05/10 01:23:49;;;;;;;;;0.00;0.00;;;;;25.57;40.88;101082.28;5017463;28;45605;-75
2023/05/10 01:27:02;;;;;;;;;0.00;0.00;;;;;25.40;41.17;101055.13;5017830;28;46393;-74
2023/05/10 01:29:49;;;;;;;;;0.00;0.00;;;;;25.57;41.05;101084.94;4995723;28;45508;-74
2023/05/10 01:32:50;;;;;;;;;0.00;0.00;;;;;25.57;40.77;101078.78;4995869;28;45441;-74
2023/05/10 01:35:34;;;;;;;;;0.00;0.00;;;;;25.56;40.86;101077.13;4995730;28;45289;-75
2023/05/10 01:38:18;;;;;;;;;0.00;0.00;;;;;25.56;40.77;101079.78;4995119;28;46172;-74
2023/05/10 01:41:18;;;;;;;;;0.00;0.00;;;;;25.37;40.80;101052.88;4995666;28;45357;-74
2023/05/10 01:44:01;;;;;;;;;0.00;0.00;;;;;25.45;40.49;101057.22;4937005;28;45481;-74
2023/05/10 01:46:33;;;;;;;;;0.00;0.00;;;;;25.52;40.46;101072.22;4936978;28;45302;-74
2023/05/10 01:49:00;;;;;;;;;0.00;0.00;;;;;25.46;41.04;101065.00;4936655;28;45656;-74
2023/05/10 01:51:31;;;;;;;;;0.00;0.00;;;;;25.54;40.56;101076.50;4936464;28;45536;-74
2023/05/10 01:54:02;;;;;;;;;0.00;0.00;;;;;25.53;40.67;101067.69;4936910;28;45488;-74
2023/05/10 01:56:30;;;;;;;;;0.33;0.00;;;;;25.47;40.88;101068.50;4936730;28;45376;-74
2023/05/10 01:58:58;;;;;;;;;0.00;0.00;;;;;25.52;40.42;101063.41;4936537;28;47264;-74
2023/05/10 02:01:26;;;;;;;;;1.00;0.00;;;;;25.52;40.53;101066.88;4936700;28;45525;-74
2023/05/10 02:03:51;;;;;;;;;0.00;0.00;;;;;25.52;40.77;101069.56;4936753;28;45505;-75
2023/05/10 02:06:20;;;;;;;;;0.67;0.00;;;;;25.52;40.81;101069.56;4936418;28;45630;-74
2023/05/10 02:08:47;;;;;;;;;0.00;0.00;;;;;25.43;40.43;101054.75;4936654;28;46235;-74
2023/05/10 02:11:14;;;;;;;;;1.00;1.00;;;;;25.48;40.53;101065.63;4936396;28;46628;-74
2023/05/10 02:13:41;;;;;;;;;1.00;0.00;;;;;25.46;40.32;101059.69;4947493;28;45371;-74
2023/05/10 02:16:07;;;;;;;;;0.00;0.00;;;;;25.47;40.69;101058.66;4955971;28;45438;-74
2023/05/10 02:18:34;;;;;;;;;0.00;0.00;;;;;25.51;40.73;101072.41;4939560;28;46153;-74
2023/05/10 02:21:02;;;;;;;;;0.00;0.00;;;;;25.48;40.26;101064.78;4995899;28;45435;-74
2023/05/10 02:23:29;;;;;;;;;0.00;0.00;;;;;25.52;40.73;101069.56;5017102;28;45619;-74
2023/05/10 02:25:55;;;;;;;;;0.00;0.00;;;;;25.56;40.47;101082.44;5017045;28;45452;-74
2023/05/10 02:28:23;;;;;;;;;0.00;0.00;;;;;25.42;40.43;101047.78;5016699;28;46306;-73
2023/05/10 02:30:49;;;;;;;;;0.00;0.00;;;;;25.54;40.47;101072.00;5016934;28;45359;-74
2023/05/10 02:33:15;;;;;;;;;0.00;0.00;;;;;25.55;40.55;101072.84;5016872;28;45431;-73
2023/05/10 02:35:41;;;;;;;;;1.33;0.00;;;;;25.55;40.61;101072.84;5016478;28;45322;-73
2023/05/10 02:38:08;;;;;;;;;0.00;0.00;;;;;25.46;40.72;101058.84;5016814;28;46215;-74
2023/05/10 02:40:36;;;;;;;;;0.00;0.00;;;;;25.46;40.60;101057.00;5016593;28;45334;-74
2023/05/10 02:43:03;;;;;;;;;0.00;0.00;;;;;25.42;40.56;101050.44;5016765;28;45422;-74
2023/05/10 02:45:32;;;;;;;;;0.00;0.00;;;;;25.43;40.54;101049.41;5016612;28;45519;-74
2023/05/10 02:47:58;;;;;;;;;0.00;0.00;;;;;25.50;40.75;101066.25;5015080;28;48130;-74
2023/05/10 02:50:28;;;;;;;;;1.33;0.00;;;;;25.53;40.74;101075.69;5016148;28;45970;-74
2023/05/10 02:52:59;;;;;;;;;0.00;0.00;;;;;25.53;40.28;101067.69;5016598;28;45454;-74
2023/05/10 02:55:32;;;;;;;;;0.00;0.00;;;;;25.52;40.55;101080.22;5016560;28;46542;-74
2023/05/10 02:58:00;;;;;;;;;1.00;0.00;;;;;25.49;40.36;101079.78;5016230;28;47201;-74
2023/05/10 03:00:26;;;;;;;;;0.00;0.00;;;;;25.52;40.55;101080.22;5015962;28;45463;-74
2023/05/10 03:02:52;;;;;;;;;1.00;1.00;;;;;25.46;40.34;101081.00;5016387;28;45486;-74
2023/05/10 03:05:17;;;;;;;;;0.00;0.00;;;;;25.52;40.56;101079.38;5016169;28;45363;-74
2023/05/10 03:07:43;;;;;;;;;0.67;0.67;;;;;25.49;40.10;101069.13;5016125;28;46081;-74
2023/05/10 03:10:09;;;;;;;;;0.00;0.00;;;;;25.47;40.78;101061.34;5016081;28;45417;-74
2023/05/10 03:12:38;;;;;;;;;0.00;0.00;;;;;25.54;40.61;101074.66;5016352;28;45489;-74
2023/05/10 03:15:17;;;;;;;;;0.00;0.00;;;;;25.55;40.22;101067.50;5016217;28;45552;-72
2023/05/10 03:18:01;;;;;;;;;0.00;0.00;;;;;25.40;40.66;101042.66;5016347;28;45432;-73
2023/05/10 03:20:38;;;;;;;;;0.00;0.00;;;;;25.51;40.43;101059.91;5015740;28;45368;-74
2023/05/10 03:23:22;;;;;;;;;0.00;0.00;;;;;25.55;40.43;101064.84;5014861;28;45350;-74
2023/05/10 03:25:49;;;;;;;;;0.00;0.00;;;;;25.49;40.49;101059.28;5016176;28;45366;-74
2023/05/10 03:28:16;;;;;;;;;0.00;0.00;;;;;25.37;40.27;101045.69;5015887;28;47277;-74
2023/05/10 03:30:43;;;;;;;;;2.00;0.67;;;;;25.45;40.24;101066.00;5015886;28;45344;-73
2023/05/10 03:33:08;;;;;;;;;0.00;0.00;;;;;25.52;40.38;101068.72;5015500;28;45341;-73
2023/05/10 03:35:34;;;;;;;;;0.00;0.00;;;;;25.49;40.95;101069.13;5015929;28;45362;-74
2023/05/10 03:38:00;;;;;;;;;0.00;0.00;;;;;25.49;40.50;101071.78;5015860;28;45390;-74
2023/05/10 03:40:28;;;;;;;;;1.00;1.00;;;;;25.43;40.51;101070.72;5016020;28;45363;-74
2023/05/10 03:42:54;;;;;;;;;2.00;0.00;;;;;25.48;40.42;101075.44;5016145;28;45423;-74
2023/05/10 03:45:19;;;;;;;;;1.00;0.00;;;;;25.41;40.91;101067.44;5015627;28;45498;-74
2023/05/10 03:47:45;;;;;;;;;0.33;0.33;;;;;25.46;40.49;101075.66;5015474;28;46963;-74
2023/05/10 03:50:10;;;;;;;;;1.67;0.00;;;;;25.46;40.61;101080.16;5014368;28;45392;-72
2023/05/10 03:52:36;;;;;;;;;0.00;0.00;;;;;25.37;40.54;101072.34;5015851;28;45324;-74
2023/05/10 03:55:03;;;;;;;;;0.00;0.00;;;;;25.46;40.66;101090.81;5015763;28;45238;-74
2023/05/10 03:57:28;;;;;;;;;0.00;0.00;;;;;25.40;40.62;101073.78;5015532;28;46366;-74
2023/05/10 03:59:54;;;;;;;;;2.00;0.33;;;;;25.43;40.63;101081.38;5015424;28;45271;-73
2023/05/10 04:02:19;;;;;;;;;0.00;0.00;;;;;25.46;40.54;101080.16;5015446;28;45253;-75
2023/05/10 04:04:44;;;;;;;;;0.00;0.00;;;;;25.37;40.58;101071.53;5015764;28;45370;-74
2023/05/10 04:07:10;;;;;;;;;0.00;0.00;;;;;25.37;40.54;101072.34;5015304;28;45320;-74
2023/05/10 04:09:35;;;;;;;;;0.00;0.00;;;;;25.45;40.92;101076.66;5015100;28;45506;-75
2023/05/10 04:12:02;;;;;;;;;1.00;0.00;;;;;25.46;40.41;101075.66;5015564;28;45516;-74
2023/05/10 04:14:27;;;;;;;;;1.67;1.67;;;;;25.46;40.74;101083.66;5015313;28;45257;-74
2023/05/10 04:16:53;;;;;;;;;1.00;1.00;;;;;25.37;40.89;101076.84;5014890;28;46179;-75
2023/05/10 04:19:18;;;;;;;;;0.33;0.33;;;;;25.46;40.82;101086.31;5015232;28;46461;-74
2023/05/10 04:21:43;;;;;;;;;1.00;0.00;;;;;25.46;40.68;101091.66;5015413;28;45553;-73
2023/05/10 04:24:08;;;;;;;;;0.67;0.67;;;;;25.47;40.71;101093.31;5015513;28;45359;-73
2023/05/10 04:26:34;;;;;;;;;0.00;0.00;;;;;25.47;40.80;101092.47;5015223;28;46089;-74
2023/05/10 04:29:00;;;;;;;;;0.00;0.00;;;;;25.45;40.94;101097.19;5015191;28;45386;-74
2023/05/10 04:31:25;;;;;;;;;1.00;1.00;;;;;25.46;40.52;101096.97;5015031;28;45402;-74
2023/05/10 04:33:51;;;;;;;;;0.00;0.00;;;;;25.45;40.68;101091.84;5015211;28;45417;-74
2023/05/10 04:36:16;;;;;;;;;0.00;0.00;;;;;25.43;40.67;101091.19;5016428;28;45361;-74
2023/05/10 04:38:42;;;;;;;;;0.00;0.00;;;;;25.48;40.60;101100.25;5018766;28;45356;-74
2023/05/10 04:41:09;;;;;;;;;0.00;0.00;;;;;25.35;40.30;101085.03;5018812;28;45472;-74
2023/05/10 04:43:35;;;;;;;;;0.00;0.00;;;;;25.46;40.38;101093.47;5018586;28;45538;-74
2023/05/10 04:46:00;;;;;;;;;0.00;0.00;;;;;25.40;41.00;101087.91;5018117;28;46075;-74
2023/05/10 04:48:26;;;;;;;;;0.00;0.00;;;;;25.47;40.63;101103.94;5018415;28;45400;-74
2023/05/10 04:50:52;;;;;;;;;0.00;0.00;;;;;25.43;40.34;101096.53;5018590;28;45397;-74
2023/05/10 04:53:17;;;;;;;;;1.00;0.00;;;;;25.50;40.75;101111.53;5018499;28;45492;-74
2023/05/10 04:55:42;;;;;;;;;0.00;0.00;;;;;25.48;40.72;101108.25;5018160;28;46567;-73
2023/05/10 04:58:08;;;;;;;;;0.00;0.00;;;;;25.46;40.67;101106.78;5018251;28;45420;-74
2023/05/10 05:00:33;;;;;;;;;0.00;0.00;;;;;25.47;40.07;101108.44;5018020;28;45261;-74
2023/05/10 05:02:59;;;;;;;;;1.00;0.00;;;;;25.42;40.69;101103.72;5018293;28;45435;-73
2023/05/10 05:05:25;;;;;;;;;0.00;0.00;;;;;25.49;40.58;101125.88;5018261;28;46968;-74
2023/05/10 05:07:50;;;;;;;;;0.67;0.67;;;;;25.46;40.86;101112.13;5018339;28;45387;-74
2023/05/10 05:10:16;;;;;;;;;0.67;0.67;;;;;25.49;40.44;101122.38;5017842;28;45389;-74
2023/05/10 05:12:41;;;;;;;;;2.00;1.00;;;;;25.48;40.29;101118.91;5018125;28;45486;-74
2023/05/10 05:15:08;;;;;;;;;1.00;1.00;;;;;25.48;40.74;101124.22;5017654;28;45629;-74
2023/05/10 05:17:34;;;;;;;;;0.33;0.00;;;;;25.36;40.51;101118.63;5017881;28;45298;-74
2023/05/10 05:19:59;;;;;;;;;2.00;0.00;;;;;25.48;40.47;101139.38;5018079;28;45229;-74
2023/05/10 05:22:27;;;;;;;;;2.00;1.00;;;;;25.47;40.50;101135.09;5016567;28;45331;-75
2023/05/10 05:24:54;;;;;;;;;0.00;0.00;;;;;25.38;40.36;101131.75;5017761;28;46301;-74
2023/05/10 05:27:22;;;;;;;;;1.00;0.00;;;;;25.48;40.53;101145.53;5016504;28;45420;-76
2023/05/10 05:29:47;;;;;;;;;0.00;0.00;;;;;25.34;40.34;101127.84;5017535;28;45332;-74
2023/05/10 05:32:12;;;;;;;;;9.67;2.67;;;;;25.48;40.66;101153.53;5017873;28;45450;-73
2023/05/10 05:34:38;;;;;;;;;8.00;1.00;;;;;25.39;40.53;101141.41;5017448;28;45471;-73
2023/05/10 05:37:03;;;;;;;;;2.33;1.33;;;;;25.49;40.75;101157.84;5015531;28;45507;-73
2023/05/10 05:39:28;;;;;;;;;1.67;1.00;;;;;25.48;40.65;101155.38;5010905;28;45430;-73
2023/05/10 05:41:54;;;;;;;;;4.33;2.00;;;;;25.37;40.69;101144.25;5016627;28;45546;-73
2023/05/10 05:44:19;;;;;;;;;6.00;1.67;;;;;25.50;41.13;101170.13;5015904;28;49156;-72
2023/05/10 05:46:45;;;;;;;;;4.00;1.67;;;;;25.35;41.34;101146.28;5016629;28;45366;-73
2023/05/10 05:49:10;;;;;;;;;5.00;2.67;;;;;25.53;41.01;101176.91;5016674;28;45213;-74
2023/05/10 05:51:35;;;;;;;;;4.67;2.00;;;;;25.33;40.69;101148.31;5016390;28;45364;-74
2023/05/10 05:54:01;;;;;;;;;3.33;1.33;;;;;25.52;41.01;101181.44;5014794;28;47015;-74
2023/05/10 05:56:26;;;;;;;;;3.33;2.00;;;;;25.49;40.79;101176.50;5016374;28;45376;-74
2023/05/10 05:58:52;;;;;;;;;3.33;1.33;;;;;25.39;41.07;101165.38;5005528;28;45517;-75
2023/05/10 06:01:17;;;;;;;;;4.00;2.33;;;;;25.53;40.80;101187.56;5011394;28;45345;-74
2023/05/10 06:03:42;;;;;;;;;3.33;1.33;;;;;25.43;40.78;101166.63;5016573;28;46766;-75
2023/05/10 06:06:08;;;;;;;;;2.67;2.67;;;;;25.42;41.15;101172.16;5014792;28;45392;-74
2023/05/10 06:08:33;;;;;;;;;3.00;2.00;;;;;25.54;41.00;101189.22;5013670;28;45870;-73
2023/05/10 06:11:00;;;;;;;;;4.00;2.00;;;;;25.53;40.94;101195.56;5015051;28;45467;-74
2023/05/10 06:13:28;;;;;;;;;2.00;1.00;;;;;25.50;40.76;101185.31;5015517;28;46209;-73
2023/05/10 06:15:54;;;;;;;;;2.33;1.00;;;;;25.50;40.81;101198.63;5016093;28;45383;-73
2023/05/10 06:18:19;;;;;;;;;2.00;2.00;;;;;25.54;40.77;101201.72;5015944;28;45261;-74
2023/05/10 06:20:44;;;;;;;;;1.33;1.00;;;;;25.55;40.99;101206.88;5016391;28;45247;-73
2023/05/10 06:23:09;;;;;;;;;4.00;2.33;;;;;25.55;40.76;101206.88;5015808;28;45387;-74
2023/05/10 06:25:35;;;;;;;;;3.00;1.00;;;;;25.48;40.98;101197.97;5016042;28;45342;-72
2023/05/10 06:28:01;;;;;;;;;2.00;2.00;;;;;25.47;41.11;101194.53;5015589;28;45210;-73
2023/05/10 06:30:28;;;;;;;;;3.00;2.00;;;;;25.53;41.21;101214.19;5016242;28;45175;-73
2023/05/10 06:32:54;;;;;;;;;1.67;0.00;;;;;25.57;41.12;101220.81;5015868;28;47633;-73
2023/05/10 06:35:19;;;;;;;;;3.33;1.00;;;;;25.54;41.01;101221.19;5015748;28;45459;-73
2023/05/10 06:37:44;;;;;;;;;1.00;1.00;;;;;25.57;40.84;101219.97;5016037;28;45397;-74
2023/05/10 06:40:10;;;;;;;;;3.00;1.67;;;;;25.56;40.84;101224.47;5015015;28;45485;-75
2023/05/10 06:42:35;;;;;;;;;3.67;1.00;;;;;25.45;40.25;101215.19;5015395;28;46323;-75
2023/05/10 06:45:01;;;;;;;;;2.00;2.00;;;;;25.37;39.72;101210.03;5016360;28;45437;-75
2023/05/10 06:47:26;;;;;;;;;6.00;3.00;;;;;25.44;39.87;101231.38;5016604;28;45324;-75
2023/05/10 06:49:52;;;;;;;;;3.67;2.00;;;;;25.39;39.67;101230.13;5016489;28;45335;-75
2023/05/10 06:52:17;;;;;;;;;1.33;1.33;;;;;25.16;39.58;101217.03;5015976;28;46271;-75
2023/05/10 06:54:42;;;;;;;;;1.00;1.00;;;;;25.27;39.32;101236.97;5016310;28;45353;-75
2023/05/10 06:57:08;;;;;;;;;2.67;2.00;;;;;25.26;39.43;101240.66;5015910;28;45344;-76
2023/05/10 06:59:33;;;;;;;;;2.00;2.00;;;;;25.20;39.39;101239.59;5015206;28;45483;-74
2023/05/10 07:01:58;;;;;;;;;3.33;2.00;;;;;25.21;39.41;101246.56;5015710;28;45592;-76
2023/05/10 07:04:23;;;;;;;;;7.00;3.00;;;;;25.16;39.39;101235.69;5015981;28;45610;-76
2023/05/10 07:06:49;;;;;;;;;15.67;6.67;;;;;25.17;39.23;101245.28;5016338;28;45340;-76
2023/05/10 07:09:15;;;;;;;;;6.33;4.00;;;;;24.97;38.93;101224.63;5016220;28;45392;-78
2023/05/10 07:11:41;;;;;;;;;7.33;5.00;;;;;24.99;39.06;101229.75;5015446;28;47393;-76
2023/05/10 07:14:06;;;;;;;;;6.33;6.33;;;;;25.07;39.22;101246.47;5015936;28;45526;-76
2023/05/10 07:16:31;;;;;;;;;8.67;5.00;;;;;24.97;38.92;101232.63;5016107;28;45872;-75
2023/05/10 07:18:57;;;;;;;;;13.33;7.00;;;;;25.03;38.95;101247.84;5015982;28;45365;-76
2023/05/10 07:21:24;;;;;;;;;12.67;5.33;;;;;24.84;39.07;101231.47;5015524;28;51541;-77
2023/05/10 07:23:49;;;;;;;;;9.33;6.33;;;;;24.89;39.18;101235.41;5015964;28;45315;-76
2023/05/10 07:26:15;;;;;;;;;8.33;4.00;;;;;24.99;38.98;101256.38;5015380;28;45376;-76
2023/05/10 07:28:40;;;;;;;;;12.00;6.33;;;;;24.97;39.05;101253.91;5015760;28;45379;-75
2023/05/10 07:31:06;;;;;;;;;20.67;7.00;;;;;24.96;38.86;101260.22;5015079;28;46163;-75
2023/05/10 07:33:31;;;;;;;;;8.67;4.33;;;;;24.87;38.72;101251.56;5015479;28;45471;-75
2023/05/10 07:35:57;;;;;;;;;5.67;3.33;;;;;24.91;38.62;101265.31;5015527;28;45432;-75
2023/05/10 07:38:23;;;;;;;;;11.00;5.33;;;;;24.89;38.56;101267.34;5015293;28;45491;-76
2023/05/10 07:40:48;;;;;;;;;24.33;9.67;;;;;24.85;38.92;101259.72;5015273;28;47016;-75
2023/05/10 07:43:13;;;;;;;;;22.00;12.33;;;;;24.77;38.73;101262.53;5015547;28;45167;-75
2023/05/10 07:45:39;;;;;;;;;20.33;12.00;;;;;24.74;38.95;101269.06;5015742;28;45264;-75
2023/05/10 07:48:04;;;;;;;;;21.67;10.33;;;;;24.84;38.95;101281.22;5015765;28;45226;-76
2023/05/10 07:50:29;;;;;;;;;20.00;6.33;;;;;24.84;39.19;101286.53;5015415;28;46304;-75
2023/05/10 07:52:55;;;;;;;;;18.67;10.00;;;;;24.79;39.13;101268.47;5015163;28;45302;-75
2023/05/10 07:55:23;;;;;;;;;8.00;4.67;;;;;24.83;39.08;101280.38;5015167;28;45360;-76
2023/05/10 07:57:49;;;;;;;;;11.33;6.33;;;;;24.79;39.29;101270.31;5015351;28;45336;-76
2023/05/10 08:00:18;;;;;;;;;14.33;6.33;;;;;24.76;39.21;101262.69;5015155;28;45732;-65
2023/05/10 08:02:43;;;;;;;;;7.33;4.67;;;;;24.84;39.44;101283.88;5015412;28;45475;-72
2023/05/10 08:05:09;;;;;;;;;10.67;5.00;;;;;24.83;38.85;101283.03;5015030;28;45467;-72
2023/05/10 08:07:34;;;;;;;;;8.00;6.00;;;;;24.85;39.12;101285.53;5015382;28;45361;-72
2023/05/10 08:10:00;;;;;;;;;11.00;6.00;;;;;24.86;39.25;101289.81;5015312;28;47112;-72
2023/05/10 08:12:25;;;;;;;;;6.67;4.00;;;;;24.88;39.45;101289.66;5018674;28;45376;-72
2023/05/10 08:14:50;;;;;;;;;6.67;4.00;;;;;24.89;39.21;101292.13;5018889;28;45401;-69
2023/05/10 08:17:16;;;;;;;;;7.33;5.00;;;;;24.87;39.36;101282.66;5018996;28;45273;-70
2023/05/10 08:19:41;;;;;;;;;5.00;4.00;;;;;24.92;39.08;101288.25;5018493;28;45324;-71
2023/05/10 08:22:06;;;;;;;;;15.33;6.67;;;;;24.93;39.29;101292.56;5018464;28;45525;-70
2023/05/10 08:24:32;;;;;;;;;21.75;8.75;;;;;24.93;39.04;101301.34;5018217;28;45581;-71
2023/05/10 08:26:57;;;;;;;;;16.67;4.67;;;;;24.95;38.94;101303.84;5018536;28;45443;-70
2023/05/10 08:29:23;;;;;;;;;11.00;6.33;;;;;24.94;39.08;101304.84;5017162;28;46091;-69
2023/05/10 08:31:48;;;;;;;;;13.00;5.00;;;;;24.94;39.00;101302.19;5018243;28;52196;-69
2023/05/10 08:34:13;;;;;;;;;8.00;4.00;;;;;24.93;39.14;101306.69;5018387;28;45513;-72
2023/05/10 08:36:38;;;;;;;;;10.67;5.67;;;;;24.93;38.79;101314.66;5018668;28;45346;-72
2023/05/10 08:39:04;;;;;;;;;10.33;3.67;;;;;24.95;39.07;101319.81;5018048;28;45387;-69
2023/05/10 08:41:31;;;;;;;;;7.00;4.33;;;;;24.95;39.04;101317.16;5018179;28;45548;-70
2023/05/10 08:43:57;;;;;;;;;7.33;3.00;;;;;24.87;39.11;101303.97;5018682;28;45432;-69
2023/05/10 08:46:23;;;;;;;;;7.00;3.00;;;;;24.94;38.92;101316.31;5018332;28;45390;-69
2023/05/10 08:48:51;;;;;;;;;6.33;4.33;;;;;24.89;39.17;101321.41;5018095;28;46030;-74
2023/05/10 08:51:21;;;;;;;;;4.67;2.67;;;;;24.95;39.62;101319.81;5017814;28;45600;-68
2023/05/10 08:53:47;;;;;;;;;6.33;3.33;;;;;24.95;39.41;101318.00;5017716;28;45389;-69
2023/05/10 08:56:12;;;;;;;;;9.67;4.00;;;;;24.97;39.29;101320.44;5018195;28;45409;-71
2023/05/10 08:58:38;;;;;;;;;5.33;3.00;;;;;24.97;39.30;101328.44;5017662;28;47306;-71
2023/05/10 09:01:05;;;;;;;;;9.33;3.33;;;;;24.90;39.11;101319.56;5017737;28;45411;-71
2023/05/10 09:03:31;;;;;;;;;6.33;3.00;;;;;24.85;38.92;101315.59;5017937;28;45332;-74
2023/05/10 09:05:56;;;;;;;;;11.00;5.00;;;;;24.90;38.94;101319.56;5018440;28;45262;-75
2023/05/10 09:08:26;;;;;;;;;5.67;2.00;;;;;24.72;38.76;101295.00;5023159;28;46070;-74
2023/05/10 09:10:52;;;;;;;;;49.75;18.00;;;;;24.90;38.99;101325.72;5017692;28;45365;-74
2023/05/10 09:13:19;;;;;;;;;37.00;13.00;;;;;24.93;38.68;101332.50;5017896;28;45405;-73
2023/05/10 09:15:45;;;;;;;;;46.50;16.00;;;;;24.98;38.76;101340.75;5017737;28;45306;-74
2023/05/10 09:18:12;;;;;;;;;37.67;19.00;;;;;25.00;39.06;101336.06;5017467;28;45280;-72
2023/05/10 09:20:37;;;;;;;;;40.75;14.50;;;;;25.03;39.04;101337.53;5017420;28;45395;-73
2023/05/10 09:23:02;;;;;;;;;36.50;15.00;;;;;25.03;39.25;101338.34;5015233;28;45463;-73
2023/05/10 09:25:28;;;;;;;;;35.00;12.67;;;;;25.03;39.23;101319.72;5017788;28;45429;-70
2023/05/10 09:27:54;;;;;;;;;39.33;11.67;;;;;25.11;39.05;101332.06;5016180;28;46998;-73
2023/05/10 11:45:02;;;;;;;;;5.00;3.33;;;;;25.68;38.71;101339.34;6261910;22;1284678;-59
2023/05/10 11:47:27;;;;;;;;;9.67;3.67;;;;;25.69;38.87;101364.97;6301748;22;45349;-71
2023/05/10 11:49:53;;;;;;;;;9.00;3.33;;;;;25.64;38.67;101356.72;6305034;22;45338;-72
2023/05/10 11:52:19;;;;;;;;;10.00;3.33;;;;;25.62;38.43;101353.44;6304856;22;45268;-72
2023/05/10 11:54:52;;;;;;;;;7.33;2.33;;;;;25.60;38.47;101358.13;6303101;22;45539;-73
2023/05/10 11:57:25;;;;;;;;;5.00;2.67;;;;;25.51;38.51;101339.63;6304670;22;46087;-71
2023/05/10 11:59:55;;;;;;;;;3.67;3.00;;;;;25.59;37.79;101357.31;6304432;22;45293;-73
2023/05/10 12:02:20;;;;;;;;;3.00;3.00;;;;;25.58;37.67;101352.97;6304061;22;45312;-73
2023/05/10 12:04:46;;;;;;;;;3.00;2.33;;;;;25.58;37.47;101360.19;6304519;22;45383;-73
2023/05/10 12:07:12;;;;;;;;;6.00;1.00;;;;;25.57;37.51;101353.19;6304368;22;46219;-71
2023/05/10 12:09:42;;;;;;;;;2.33;1.00;;;;;25.56;37.35;101355.03;6304344;22;45263;-73
2023/05/10 12:12:07;;;;;;;;;4.33;1.00;;;;;25.52;37.20;101343.94;6305091;22;45248;-73
2023/05/10 12:14:35;;;;;;;;;1.33;1.33;;;;;25.51;37.00;101352.09;6305016;22;45360;-73
2023/05/10 12:17:00;;;;;;;;;7.33;2.33;;;;;25.39;36.92;101336.66;6303939;22;46986;-72
2023/05/10 12:19:26;;;;;;;;;5.33;1.33;;;;;25.44;36.91;101352.06;6304869;22;45251;-72
2023/05/10 12:21:51;;;;;;;;;1.67;1.67;;;;;25.40;36.77;101353.44;6304562;22;45606;-72
2023/05/10 12:24:17;;;;;;;;;1.00;1.00;;;;;25.32;36.37;101354.41;6305006;22;45225;-72
2023/05/10 12:26:44;;;;;;;;;1.67;1.33;;;;;25.35;36.19;101355.84;6303645;22;47092;-73
2023/05/10 12:29:13;;;;;;;;;1.33;1.33;;;;;25.32;36.30;101361.59;6305078;22;45220;-65
2023/05/10 12:31:58;;;;;;;;;3.00;1.33;;;;;25.12;36.49;101330.25;6304002;22;45374;-77
2023/05/10 12:34:24;;;;;;;;;7.33;0.33;;;;;25.23;36.35;101344.91;6304527;22;45392;-75
2023/05/10 12:36:52;;;;;;;;;1.67;0.33;;;;;25.27;36.39;101356.81;6302468;22;46101;-75
2023/05/10 12:39:17;;;;;;;;;4.00;1.00;;;;;25.25;36.17;101345.53;6304498;22;45255;-75
2023/05/10 12:41:43;;;;;;;;;3.67;1.33;;;;;24.83;36.35;101284.88;6303861;22;45184;-75
2023/05/10 12:44:08;;;;;;;;;0.67;0.67;;;;;24.90;36.01;101293.78;6304522;22;46476;-74
2023/05/10 12:46:33;;;;;;;;;0.67;0.67;;;;;25.26;35.97;101349.84;6304456;22;46032;-75
2023/05/10 12:48:58;;;;;;;;;1.67;0.33;;;;;25.14;36.08;101338.84;6304264;22;45296;-75
2023/05/10 12:51:24;;;;;;;;;2.33;2.33;;;;;25.23;36.04;101352.88;6304917;22;45199;-75
2023/05/10 12:53:49;;;;;;;;;5.00;1.67;;;;;25.21;35.68;101353.09;6304729;22;45219;-75
2023/05/10 12:56:15;;;;;;;;;6.33;1.00;;;;;25.11;35.56;101345.38;6304606;22;45844;-75
2023/05/10 12:58:40;;;;;;;;;1.00;1.00;;;;;25.19;35.55;101360.41;6304265;22;45240;-75
2023/05/10 13:01:06;;;;;;;;;0.00;0.00;;;;;25.18;35.82;101356.13;6302456;22;45275;-75
2023/05/10 13:03:32;;;;;;;;;2.33;0.00;;;;;25.16;35.58;101361.63;6304336;22;45393;-75
2023/05/10 13:05:57;;;;;;;;;1.00;0.00;;;;;25.16;35.65;101358.16;6304420;22;45305;-75
2023/05/10 13:08:22;;;;;;;;;1.33;1.00;;;;;25.11;35.45;101358.69;6304027;22;46995;-75
2023/05/10 13:10:48;;;;;;;;;1.00;1.00;;;;;25.09;35.49;101349.25;6302775;22;45309;-75
2023/05/10 13:13:15;;;;;;;;;5.67;1.00;;;;;25.11;35.44;101356.03;6304303;22;45445;-75
2023/05/10 13:15:40;;;;;;;;;1.00;0.00;;;;;25.03;35.63;101343.66;6303995;22;46074;-75
2023/05/10 13:18:05;;;;;;;;;1.00;1.00;;;;;24.94;35.82;101324.31;6303858;22;45259;-75
2023/05/10 13:20:31;;;;;;;;;1.00;0.00;;;;;25.17;35.37;101357.13;6304212;22;45205;-75
2023/05/10 13:22:56;;;;;;;;;5.67;1.00;;;;;25.18;35.71;101358.78;6304185;22;45426;-75
2023/05/10 13:25:21;;;;;;;;;1.33;1.00;;;;;25.19;35.47;101357.75;6304311;22;46217;-75
2023/05/10 13:27:46;;;;;;;;;1.00;1.00;;;;;25.16;35.30;101352.81;6304482;22;45295;-75
2023/05/10 13:30:12;;;;;;;;;2.00;1.00;;;;;24.95;35.23;101325.16;6304239;22;45180;-75
2023/05/10 13:32:38;;;;;;;;;2.00;1.00;;;;;25.19;35.08;101357.75;6304327;22;45400;-75
2023/05/10 13:35:04;;;;;;;;;2.33;0.33;;;;;24.96;35.11;101327.59;6304214;22;45271;-75
2023/05/10 13:37:31;;;;;;;;;1.00;1.00;;;;;25.11;35.09;101340.06;6303655;22;45171;-75